createdAt,value
2023-04-14T00:02:08.434Z,73.11
2023-04-14T00:04:35.882Z,72.77
2023-04-14T00:07:02.492Z,73.69
2023-04-14T00:09:29.982Z,73.31
2023-04-14T00:11:57.363Z,73.60
2023-04-14T00:14:23.894Z,73.69
2023-04-14T00:16:50.413Z,73.91
2023-04-14T00:19:16.965Z,74.78
2023-04-14T00:21:43.394Z,74.61
2023-04-14T00:24:09.874Z,74.06
2023-04-14T00:26:36.377Z,74.33
2023-04-14T00:29:03.189Z,73.89
2023-04-14T00:31:29.898Z,73.69
2023-04-14T00:33:56.392Z,73.56
2023-04-14T00:36:22.928Z,73.43
2023-04-14T00:38:49.544Z,73.10
2023-04-14T00:41:16.045Z,72.57
2023-04-14T00:43:42.564Z,73.37
2023-04-14T00:46:09.163Z,73.06
2023-04-14T00:48:36.119Z,73.02
2023-04-14T00:51:03.727Z,74.01
2023-04-14T00:53:31.774Z,73.87
2023-04-14T00:55:59.269Z,73.69
2023-04-14T00:58:26.255Z,74.30
2023-04-14T01:00:55.752Z,74.65
2023-04-14T01:03:24.563Z,74.19
2023-04-14T01:05:51.415Z,73.74
2023-04-14T01:08:19.316Z,73.64
2023-04-14T01:11:08.905Z,73.91
2023-04-14T01:13:46.119Z,75.60
2023-04-14T01:16:29.393Z,76.19
2023-04-14T01:19:22.766Z,76.60
2023-04-14T01:21:56.808Z,75.53
2023-04-14T01:24:37.974Z,75.43
2023-04-14T01:27:33.128Z,74.89
2023-04-14T01:30:31.126Z,75.72
2023-04-14T01:33:01.439Z,76.38
2023-04-14T01:35:36.663Z,74.94
2023-04-14T01:38:14.735Z,74.29
2023-04-14T01:40:47.555Z,73.67
2023-04-14T01:43:16.051Z,73.51
2023-04-14T01:45:48.939Z,73.15
2023-04-14T01:48:16.737Z,72.72
2023-04-14T01:50:47.066Z,72.38
2023-04-14T01:53:16.429Z,72.21
2023-04-14T01:55:44.289Z,73.21
2023-04-14T01:58:12.509Z,73.84
2023-04-14T02:00:41.134Z,73.80
2023-04-14T02:03:08.569Z,73.77
2023-04-14T02:05:38.216Z,73.93
2023-04-14T02:08:10.057Z,74.33
2023-04-14T02:10:39.273Z,75.19
2023-04-14T02:13:07.795Z,75.45
2023-04-14T02:15:35.256Z,74.40
2023-04-14T02:18:04.794Z,74.18
2023-04-14T02:20:32.956Z,74.22
2023-04-14T02:23:00.515Z,73.29
2023-04-14T02:25:34.854Z,73.13
2023-04-14T02:28:06.588Z,73.66
2023-04-14T02:30:37.963Z,73.04
2023-04-14T02:33:07.838Z,72.97
2023-04-14T02:35:47.142Z,72.13
2023-04-14T02:38:29.589Z,73.71
2023-04-14T02:40:56.407Z,73.83
2023-04-14T02:43:32.049Z,74.10
2023-04-14T02:46:02.839Z,74.47
2023-04-14T02:48:34.704Z,74.28
2023-04-14T02:51:03.552Z,73.88
2023-04-14T02:53:31.045Z,73.19
2023-04-14T02:56:08.689Z,73.20
2023-04-14T02:58:39.600Z,72.83
2023-04-14T03:01:06.968Z,72.47
2023-04-14T03:03:37.552Z,72.50
2023-04-14T03:06:08.613Z,72.85
2023-04-14T03:08:37.267Z,72.84
2023-04-14T03:11:05.268Z,73.35
2023-04-14T03:13:34.466Z,73.15
2023-04-14T03:16:03.348Z,73.91
2023-04-14T03:18:32.233Z,73.82
2023-04-14T03:21:01.722Z,73.79
2023-04-14T03:23:31.925Z,73.14
2023-04-14T03:26:03.293Z,73.69
2023-04-14T03:28:32.535Z,74.16
2023-04-14T03:31:04.570Z,73.95
2023-04-14T03:33:41.469Z,75.15
2023-04-14T03:36:12.597Z,74.96
2023-04-14T03:38:42.051Z,73.77
2023-04-14T03:41:10.297Z,73.80
2023-04-14T03:43:38.742Z,73.62
2023-04-14T03:46:10.886Z,73.71
2023-04-14T03:48:42.748Z,73.37
2023-04-14T03:51:13.853Z,73.14
2023-04-14T03:53:43.243Z,73.00
2023-04-14T03:56:13.443Z,72.49
2023-04-14T03:58:44.129Z,71.80
2023-04-14T04:01:12.400Z,71.44
2023-04-14T04:03:39.984Z,71.30
2023-04-14T04:06:07.329Z,71.54
2023-04-14T04:08:36.021Z,73.01
2023-04-14T04:11:07.300Z,73.56
2023-04-14T04:13:36.635Z,73.42
2023-04-14T04:16:07.350Z,73.67
2023-04-14T04:18:38.057Z,72.87
2023-04-14T04:21:08.076Z,74.41
2023-04-14T04:23:39.502Z,74.53
2023-04-14T04:26:06.165Z,75.20
2023-04-14T04:28:38.799Z,75.21
2023-04-14T04:31:06.525Z,74.83
2023-04-14T04:33:34.547Z,74.67
2023-04-14T04:36:02.995Z,75.07
2023-04-14T04:38:35.390Z,74.75
2023-04-14T04:41:02.452Z,75.44
2023-04-14T04:43:30.308Z,74.30
2023-04-14T04:46:21.232Z,73.93
2023-04-14T04:48:52.443Z,73.50
2023-04-14T04:51:19.068Z,73.56
2023-04-14T04:53:45.784Z,73.88
2023-04-14T04:56:12.303Z,74.07
2023-04-14T04:58:38.721Z,73.97
2023-04-14T05:01:11.647Z,73.72
2023-04-14T05:03:38.612Z,89.50
2023-04-14T05:06:05.406Z,98.36
2023-04-14T05:08:31.848Z,97.91
2023-04-14T05:10:58.397Z,93.07
2023-04-14T05:13:25.664Z,85.32
2023-04-14T05:15:52.471Z,65.80
2023-04-14T05:18:19.481Z,64.88
2023-04-14T05:20:46.270Z,64.09
2023-04-14T05:23:13.373Z,65.80
2023-04-14T05:25:39.967Z,66.79
2023-04-14T05:28:06.390Z,67.72
2023-04-14T05:30:32.897Z,67.82
2023-04-14T05:32:59.363Z,67.51
2023-04-14T05:35:26.018Z,66.45
2023-04-14T05:37:52.505Z,66.84
2023-04-14T05:40:20.468Z,67.31
2023-04-14T05:42:46.874Z,66.01
2023-04-14T05:45:13.569Z,63.17
2023-04-14T05:47:39.972Z,63.85
2023-04-14T05:50:07.810Z,62.19
2023-04-14T05:52:34.260Z,62.20
2023-04-14T05:55:01.051Z,61.59
2023-04-14T05:57:27.546Z,60.54
2023-04-14T05:59:54.751Z,60.87
2023-04-14T06:02:21.894Z,59.68
2023-04-14T06:04:49.120Z,58.68
2023-04-14T06:07:15.769Z,58.19
2023-04-14T06:09:42.715Z,56.87
2023-04-14T06:12:09.478Z,56.36
2023-04-14T06:14:35.906Z,55.83
2023-04-14T06:17:02.314Z,54.95
2023-04-14T06:19:28.783Z,53.77
2023-04-14T06:21:55.253Z,54.05
2023-04-14T06:24:21.729Z,53.88
2023-04-14T06:26:48.152Z,54.21
2023-04-14T06:29:16.023Z,54.21
2023-04-14T06:31:42.673Z,54.05
2023-04-14T06:34:09.296Z,53.67
2023-04-14T06:36:35.968Z,54.03
2023-04-14T06:39:02.977Z,54.88
2023-04-14T06:41:29.617Z,55.06
2023-04-14T06:43:56.460Z,55.13
2023-04-14T06:46:22.930Z,55.16
2023-04-14T06:48:49.560Z,54.59
2023-04-14T06:51:16.149Z,54.55
2023-04-14T06:53:42.690Z,54.01
2023-04-14T06:56:09.183Z,53.79
2023-04-14T06:58:36.001Z,54.23
2023-04-14T07:01:03.646Z,53.73
2023-04-14T07:03:31.377Z,53.77
2023-04-14T07:06:09.209Z,52.24
2023-04-14T07:08:36.739Z,52.45
2023-04-14T07:11:06.029Z,51.92
2023-04-14T07:13:32.776Z,50.89
2023-04-14T07:16:00.460Z,49.68
2023-04-14T07:18:26.993Z,49.57
2023-04-14T07:20:54.147Z,49.43
2023-04-14T07:23:21.664Z,49.50
2023-04-14T07:25:52.873Z,47.43
2023-04-14T07:28:20.248Z,47.75
2023-04-14T07:30:46.750Z,47.87
2023-04-14T07:33:13.567Z,47.37
2023-04-14T07:35:48.038Z,47.10
2023-04-14T07:38:21.294Z,45.90
2023-04-14T07:40:47.714Z,45.90
2023-04-14T07:43:14.221Z,45.84
2023-04-14T07:45:41.422Z,45.19
2023-04-14T07:48:08.544Z,44.65
2023-04-14T07:50:34.950Z,45.68
2023-04-14T07:53:01.982Z,45.92
2023-04-14T07:55:28.437Z,44.82
2023-04-14T07:57:54.950Z,44.55
2023-04-14T08:00:23.068Z,43.99
2023-04-14T08:02:49.659Z,43.24
2023-04-14T08:05:16.413Z,42.98
2023-04-14T08:07:42.964Z,43.69
2023-04-14T08:10:09.404Z,42.60
2023-04-14T08:12:35.933Z,42.54
2023-04-14T08:15:02.364Z,42.02
2023-04-14T08:17:28.978Z,41.86
2023-04-14T08:19:55.732Z,41.49
2023-04-14T08:22:22.304Z,41.80
2023-04-14T08:24:48.712Z,40.76
2023-04-14T08:27:15.853Z,40.89
2023-04-14T08:29:42.285Z,40.74
2023-04-14T08:32:08.791Z,41.53
2023-04-14T08:34:35.246Z,41.62
2023-04-14T08:37:01.818Z,41.30
2023-04-14T08:39:28.741Z,39.95
2023-04-14T08:41:56.895Z,39.70
2023-04-14T08:44:23.302Z,37.58
2023-04-14T08:46:54.963Z,37.89
2023-04-14T08:49:35.934Z,37.20
2023-04-14T08:52:04.023Z,37.46
2023-04-14T08:54:31.158Z,36.98
2023-04-14T08:56:59.440Z,37.04
2023-04-14T08:59:27.451Z,36.67
2023-04-14T09:01:55.513Z,36.34
2023-04-14T09:04:23.703Z,36.14
2023-04-14T09:06:50.421Z,35.99
2023-04-14T09:09:18.040Z,35.30
2023-04-14T09:11:45.155Z,34.93
2023-04-14T09:14:13.145Z,34.31
2023-04-14T09:16:39.779Z,33.88
2023-04-14T09:19:07.351Z,34.59
2023-04-14T09:21:53.707Z,32.07
2023-04-14T09:24:30.344Z,33.12
2023-04-14T09:26:58.724Z,33.38
2023-04-14T09:29:25.683Z,33.32
2023-04-14T09:31:52.389Z,33.20
2023-04-14T09:34:20.787Z,32.49
2023-04-14T09:37:06.943Z,33.22
2023-04-14T09:39:34.804Z,31.91
2023-04-14T09:42:03.612Z,32.73
2023-04-14T09:44:30.656Z,32.91
2023-04-14T09:47:07.877Z,34.28
2023-04-14T09:49:34.354Z,32.71
2023-04-14T09:52:07.346Z,32.56
2023-04-14T09:54:34.016Z,31.72
2023-04-14T09:57:01.646Z,33.01
2023-04-14T09:59:36.711Z,34.71
2023-04-14T10:02:08.145Z,33.58
2023-04-14T10:04:35.499Z,32.79
2023-04-14T10:07:06.270Z,32.47
2023-04-14T10:09:37.589Z,32.96
2023-04-14T10:12:08.303Z,32.43
2023-04-14T10:14:36.889Z,32.64
2023-04-14T10:17:03.357Z,31.58
2023-04-14T10:19:30.073Z,32.07
2023-04-14T10:21:57.897Z,30.44
2023-04-14T10:24:25.232Z,31.88
2023-04-14T10:26:52.923Z,31.81
2023-04-14T10:29:20.364Z,33.52
2023-04-14T10:31:50.089Z,33.54
2023-04-14T10:34:17.070Z,33.55
2023-04-14T10:36:43.785Z,34.29
2023-04-14T10:39:12.982Z,32.55
2023-04-14T10:41:42.446Z,32.30
2023-04-14T10:44:32.608Z,32.38
2023-04-14T10:47:02.049Z,33.46
2023-04-14T10:49:34.136Z,32.43
2023-04-14T10:52:05.119Z,33.66
2023-04-14T10:55:07.893Z,34.33
2023-04-14T10:57:45.706Z,34.74
2023-04-14T11:00:21.578Z,33.93
2023-04-14T11:03:05.734Z,36.70
2023-04-14T11:05:34.062Z,35.62
2023-04-14T11:08:11.624Z,34.95
2023-04-14T11:10:38.134Z,32.96
2023-04-14T11:13:08.342Z,31.30
2023-04-14T11:16:05.148Z,30.46
2023-04-14T11:18:45.393Z,32.42
2023-04-14T11:21:15.597Z,31.88
2023-04-14T11:23:43.364Z,31.82
2023-04-14T11:26:12.271Z,32.71
2023-04-14T11:28:41.421Z,32.22
2023-04-14T11:31:10.125Z,30.42
2023-04-14T11:33:38.659Z,32.65
2023-04-14T11:36:07.042Z,33.71
2023-04-14T11:38:40.611Z,32.94
2023-04-14T11:41:07.942Z,32.08
2023-04-14T11:43:34.711Z,32.77
2023-04-14T11:46:05.115Z,32.70
2023-04-14T11:48:31.648Z,33.67
2023-04-14T11:51:03.276Z,31.55
2023-04-14T11:53:30.130Z,31.96
2023-04-14T11:55:57.527Z,32.52
2023-04-14T11:58:25.705Z,34.51
2023-04-14T12:00:56.038Z,34.18
2023-04-14T12:03:30.402Z,33.71
2023-04-14T12:06:01.671Z,32.29
2023-04-14T12:08:32.650Z,33.05
2023-04-14T12:11:11.595Z,34.14
2023-04-14T12:13:42.402Z,33.82
2023-04-14T12:16:09.980Z,33.75
2023-04-14T12:18:36.694Z,33.65
2023-04-14T12:21:06.330Z,32.92
2023-04-14T12:23:48.291Z,33.10
2023-04-14T12:26:15.009Z,32.99
2023-04-14T12:28:42.011Z,32.97
2023-04-14T12:31:09.706Z,34.25
2023-04-14T12:33:36.379Z,34.43
2023-04-14T12:36:13.148Z,32.61
2023-04-14T12:38:39.811Z,32.11
2023-04-14T12:41:06.271Z,32.41
2023-04-14T12:43:35.426Z,32.93
2023-04-14T12:46:06.128Z,33.20
2023-04-14T12:48:44.786Z,32.87
2023-04-14T12:51:16.317Z,32.81
2023-04-14T12:53:44.486Z,31.90
2023-04-14T12:56:13.093Z,31.97
2023-04-14T12:58:41.917Z,32.81
2023-04-14T13:01:12.831Z,32.95
2023-04-14T13:03:40.464Z,33.73
2023-04-14T13:06:07.529Z,33.19
2023-04-14T13:08:34.169Z,33.59
2023-04-14T13:11:00.629Z,33.00
2023-04-14T13:13:27.712Z,33.76
2023-04-14T13:16:21.140Z,33.01
2023-04-14T13:18:40.495Z,33.82
2023-04-14T13:21:07.077Z,33.57
2023-04-14T13:23:33.765Z,34.25
2023-04-14T13:26:00.413Z,33.47
2023-04-14T13:28:27.258Z,34.06
2023-04-14T13:30:55.952Z,34.35
2023-04-14T13:33:23.949Z,34.25
2023-04-14T13:35:51.123Z,33.63
2023-04-14T13:38:17.924Z,34.09
2023-04-14T13:40:46.130Z,34.26
2023-04-14T13:43:16.412Z,34.86
2023-04-14T13:45:42.920Z,34.84
2023-04-14T13:48:09.460Z,34.24
2023-04-14T13:50:35.929Z,33.40
2023-04-14T13:53:02.326Z,34.15
2023-04-14T13:55:28.820Z,34.15
2023-04-14T13:57:55.358Z,33.52
2023-04-14T14:00:21.842Z,34.71
2023-04-14T14:02:48.466Z,34.55
2023-04-14T14:05:15.353Z,33.94
2023-04-14T14:07:41.832Z,34.76
2023-04-14T14:10:10.431Z,33.91
2023-04-14T14:12:37.022Z,34.34
2023-04-14T14:15:04.791Z,34.47
2023-04-14T14:17:31.546Z,33.77
2023-04-14T14:19:58.335Z,34.88
2023-04-14T14:22:24.765Z,35.53
2023-04-14T14:24:51.387Z,34.50
2023-04-14T14:27:17.844Z,33.27
2023-04-14T14:29:44.301Z,32.83
2023-04-14T14:32:11.022Z,33.66
2023-04-14T14:34:38.944Z,32.89
2023-04-14T14:37:05.682Z,32.98
2023-04-14T14:39:32.622Z,33.40
2023-04-14T14:41:59.336Z,32.78
2023-04-14T14:44:25.925Z,32.65
2023-04-14T14:46:53.015Z,32.02
2023-04-14T14:49:20.876Z,31.01
2023-04-14T14:51:47.472Z,31.26
2023-04-14T14:54:14.335Z,31.63
2023-04-14T14:56:40.867Z,31.90
2023-04-14T14:59:08.494Z,32.46
2023-04-14T15:01:35.458Z,31.70
2023-04-14T15:04:02.468Z,32.73
2023-04-14T15:06:29.194Z,32.11
2023-04-14T15:08:55.848Z,31.45
2023-04-14T15:11:22.376Z,31.73
2023-04-14T15:13:48.821Z,30.92
2023-04-14T15:16:15.966Z,30.99
2023-04-14T15:18:42.952Z,32.03
2023-04-14T15:21:09.365Z,31.99
2023-04-14T15:23:39.442Z,32.56
2023-04-14T15:26:06.376Z,32.68
2023-04-14T15:28:33.847Z,31.89
2023-04-14T15:31:00.480Z,32.09
2023-04-14T15:33:26.934Z,33.18
2023-04-14T15:35:53.307Z,32.97
2023-04-14T15:38:19.849Z,33.00
2023-04-14T15:40:46.564Z,33.83
2023-04-14T15:43:14.083Z,34.02
2023-04-14T15:45:40.622Z,34.13
2023-04-14T15:48:07.162Z,34.93
2023-04-14T15:50:33.616Z,35.60
2023-04-14T15:53:11.227Z,36.23
2023-04-14T15:55:38.314Z,35.40
2023-04-14T15:58:05.392Z,33.65
2023-04-14T16:00:32.634Z,33.71
2023-04-14T16:03:01.027Z,34.14
2023-04-14T16:05:27.773Z,33.07
2023-04-14T16:07:54.234Z,31.95
2023-04-14T16:10:20.763Z,31.05
2023-04-14T16:12:48.576Z,31.13
2023-04-14T16:15:15.671Z,31.08
2023-04-14T16:17:42.320Z,31.14
2023-04-14T16:20:09.401Z,31.71
2023-04-14T16:22:35.910Z,31.52
2023-04-14T16:25:04.284Z,31.85
2023-04-14T16:27:30.770Z,32.00
2023-04-14T16:29:57.321Z,32.61
2023-04-14T16:32:24.835Z,32.05
2023-04-14T16:34:51.398Z,31.86
2023-04-14T16:37:17.956Z,31.03
2023-04-14T16:39:44.693Z,31.67
2023-04-14T16:42:11.126Z,32.47
2023-04-14T16:44:37.856Z,32.60
2023-04-14T16:47:04.312Z,32.65
2023-04-14T16:49:31.597Z,32.07
2023-04-14T16:51:58.392Z,32.39
2023-04-14T16:54:27.491Z,31.81
2023-04-14T16:56:53.916Z,32.05
2023-04-14T16:59:20.365Z,32.87
2023-04-14T17:01:46.999Z,33.03
2023-04-14T17:04:13.795Z,33.31
2023-04-14T17:06:40.408Z,33.54
2023-04-14T17:09:06.896Z,32.25
2023-04-14T17:11:33.302Z,33.01
2023-04-14T17:13:59.972Z,33.77
2023-04-14T17:16:27.314Z,33.83
2023-04-14T17:18:53.807Z,34.50
2023-04-14T17:21:20.273Z,34.58
2023-04-14T17:23:46.756Z,34.72
2023-04-14T17:26:16.020Z,34.55
2023-04-14T17:28:42.708Z,35.20
2023-04-14T17:31:14.056Z,35.01
2023-04-14T17:33:42.139Z,35.33
2023-04-14T17:36:09.711Z,35.93
2023-04-14T17:38:38.610Z,36.58
2023-04-14T17:41:05.856Z,36.86
2023-04-14T17:43:32.394Z,36.93
2023-04-14T17:45:58.848Z,37.26
2023-04-14T17:48:25.752Z,37.84
2023-04-14T17:50:52.788Z,38.83
2023-04-14T17:53:19.347Z,39.30
2023-04-14T17:55:46.055Z,40.29
2023-04-14T17:58:12.522Z,39.86
2023-04-14T18:00:39.311Z,39.88
2023-04-14T18:03:05.949Z,40.30
2023-04-14T18:05:32.494Z,40.57
2023-04-14T18:07:58.884Z,40.35
2023-04-14T18:10:25.328Z,41.36
2023-04-14T18:12:52.033Z,40.71
2023-04-14T18:15:19.162Z,41.07
2023-04-14T18:17:45.962Z,41.10
2023-04-14T18:20:12.714Z,41.63
2023-04-14T18:22:39.191Z,42.19
2023-04-14T18:25:06.734Z,42.78
2023-04-14T18:30:02.827Z,43.43
2023-04-14T18:32:31.144Z,43.14
2023-04-14T18:34:58.060Z,43.22
2023-04-14T18:37:24.586Z,43.68
2023-04-14T18:39:51.008Z,43.45
2023-04-14T18:42:17.548Z,43.59
2023-04-14T18:44:43.988Z,43.82
2023-04-14T18:47:10.395Z,44.56
2023-04-14T18:50:11.693Z,45.53
2023-04-14T18:52:38.222Z,46.30
2023-04-14T18:55:05.243Z,46.37
2023-04-14T18:57:54.584Z,46.93
2023-04-14T19:01:06.003Z,47.39
2023-04-14T19:03:33.273Z,48.49
2023-04-14T19:06:00.121Z,48.24
2023-04-14T19:08:27.364Z,48.43
2023-04-14T19:11:13.408Z,49.05
2023-04-14T19:13:41.898Z,49.46
2023-04-14T19:16:12.448Z,49.48
2023-04-14T19:18:39.889Z,50.02
2023-04-14T19:21:10.887Z,49.92
2023-04-14T19:23:38.267Z,50.12
2023-04-14T19:30:05.583Z,50.71
2023-04-14T19:32:56.328Z,50.85
2023-04-14T19:35:32.302Z,51.34
2023-04-14T19:37:58.870Z,50.74
2023-04-14T19:40:25.549Z,51.23
2023-04-14T19:42:55.239Z,51.28
2023-04-14T19:45:32.235Z,51.39
2023-04-14T19:47:58.990Z,51.21
2023-04-14T19:50:25.758Z,51.83
2023-04-14T19:52:52.550Z,51.90
2023-04-14T19:55:44.200Z,52.65
2023-04-14T19:58:10.962Z,52.73
2023-04-14T20:00:40.940Z,52.57
2023-04-14T20:03:07.960Z,53.89
2023-04-14T20:05:34.927Z,53.37
2023-04-14T20:08:01.560Z,53.36
2023-04-14T20:10:29.207Z,54.13
2023-04-14T20:12:58.193Z,54.29
2023-04-14T20:15:49.773Z,54.38
2023-04-14T20:18:18.056Z,54.60
2023-04-14T20:20:48.935Z,54.81
2023-04-14T20:23:16.074Z,55.24
2023-04-14T20:25:44.153Z,55.46
2023-04-14T20:28:28.222Z,55.85
2023-04-14T20:30:56.010Z,55.69
2023-04-14T20:33:23.189Z,56.46
2023-04-14T20:35:53.348Z,56.50
2023-04-14T20:38:43.504Z,57.00
2023-04-14T20:41:10.282Z,57.16
2023-04-14T20:43:37.212Z,57.39
2023-04-14T20:46:04.351Z,57.08
2023-04-14T20:48:32.339Z,57.13
2023-04-14T20:50:59.873Z,57.00
2023-04-14T20:53:28.556Z,57.55
2023-04-14T20:55:55.278Z,57.50
2023-04-14T20:58:21.919Z,58.12
2023-04-14T21:00:49.278Z,58.53
2023-04-14T21:03:16.278Z,58.77
2023-04-14T21:05:43.186Z,58.65
2023-04-14T21:08:09.785Z,59.70
2023-04-14T21:10:36.426Z,59.01
2023-04-14T21:15:30.207Z,59.07
2023-04-14T21:16:34.245Z,59.60
2023-04-14T21:19:04.336Z,59.61
2023-04-14T21:21:31.930Z,59.22
2023-04-14T21:23:59.040Z,59.60
2023-04-14T21:26:28.612Z,59.90
2023-04-14T21:28:55.320Z,60.25
2023-04-14T21:31:22.251Z,59.74
2023-04-14T21:33:49.119Z,60.30
2023-04-14T21:36:15.897Z,60.59
2023-04-14T21:38:42.644Z,60.41
2023-04-14T21:41:09.591Z,60.59
2023-04-14T21:43:38.649Z,60.84
2023-04-14T21:46:29.535Z,61.46
2023-04-14T21:48:56.680Z,61.81
2023-04-14T21:51:23.609Z,62.09
2023-04-14T21:53:50.311Z,61.94
2023-04-14T21:57:03.951Z,62.40
2023-04-14T21:59:30.765Z,62.51
2023-04-14T22:02:01.282Z,62.66
2023-04-14T22:04:35.845Z,62.45
2023-04-14T22:07:03.678Z,63.25
2023-04-14T22:09:30.216Z,63.45
2023-04-14T22:11:57.886Z,63.23
2023-04-14T22:14:36.179Z,62.67
2023-04-14T22:17:03.213Z,63.08
2023-04-14T22:19:30.024Z,62.35
2023-04-14T22:22:07.545Z,63.02
2023-04-14T22:24:36.862Z,63.08
2023-04-14T22:27:03.552Z,63.74
2023-04-14T22:29:43.492Z,63.17
2023-04-14T22:32:10.078Z,63.05
2023-04-14T22:34:37.475Z,63.36
2023-04-14T22:37:04.223Z,63.76
2023-04-14T22:39:31.015Z,64.18
2023-04-14T22:41:58.809Z,63.90
2023-04-14T22:44:25.661Z,64.07
2023-04-14T22:46:52.505Z,63.63
2023-04-14T22:49:19.308Z,64.21
2023-04-14T22:51:46.016Z,64.22
2023-04-14T22:54:12.763Z,64.31
2023-04-14T22:56:41.018Z,64.57
2023-04-14T22:59:07.739Z,65.26
2023-04-14T23:01:34.635Z,65.38
2023-04-14T23:04:01.511Z,65.50
2023-04-14T23:06:28.344Z,65.38
2023-04-14T23:12:55.063Z,65.78
2023-04-14T23:15:21.829Z,65.92
2023-04-14T23:17:48.689Z,66.33
2023-04-14T23:20:37.535Z,65.79
2023-04-14T23:23:05.871Z,65.41
2023-04-14T23:25:33.505Z,65.29
2023-04-14T23:28:00.176Z,65.70
2023-04-14T23:30:27.488Z,65.50
2023-04-14T23:32:54.491Z,66.00
2023-04-14T23:35:30.526Z,66.10
2023-04-14T23:38:02.446Z,66.14
2023-04-14T23:40:31.115Z,66.39
2023-04-14T23:42:59.227Z,66.39
2023-04-14T23:45:34.241Z,66.45
2023-04-14T23:48:00.974Z,65.99
2023-04-14T23:50:59.029Z,66.52
2023-04-14T23:53:17.445Z,66.63
2023-04-14T23:55:44.080Z,66.84
2023-04-14T23:58:37.313Z,67.27
